createdAt,value
2023-03-06T00:00:29.698Z,2.75
2023-03-06T00:02:56.692Z,2.77
2023-03-06T00:05:23.296Z,2.78
2023-03-06T00:07:50.032Z,2.68
2023-03-06T00:10:28.239Z,2.76
2023-03-06T00:12:56.588Z,2.73
2023-03-06T00:15:24.427Z,2.81
2023-03-06T00:17:50.885Z,2.68
2023-03-06T00:20:17.644Z,2.62
2023-03-06T00:22:44.207Z,2.51
2023-03-06T00:25:17.105Z,2.37
2023-03-06T00:27:44.078Z,2.31
2023-03-06T00:30:12.876Z,2.41
2023-03-06T00:32:39.636Z,2.42
2023-03-06T00:35:06.429Z,2.56
2023-03-06T00:37:32.962Z,2.43
2023-03-06T00:39:59.714Z,2.62
2023-03-06T00:42:26.185Z,2.35
2023-03-06T00:44:52.670Z,2.35
2023-03-06T00:47:19.213Z,2.62
2023-03-06T00:49:45.703Z,2.55
2023-03-06T00:52:13.211Z,2.47
2023-03-06T00:54:40.321Z,2.49
2023-03-06T00:57:07.582Z,2.24
2023-03-06T00:59:34.079Z,2.38
2023-03-06T01:02:00.527Z,2.63
2023-03-06T01:04:27.199Z,2.64
2023-03-06T01:06:53.683Z,2.49
2023-03-06T01:09:20.248Z,2.39
2023-03-06T01:11:46.972Z,2.47
2023-03-06T01:14:13.563Z,2.41
2023-03-06T01:16:40.093Z,2.48
2023-03-06T01:19:06.514Z,2.54
2023-03-06T01:21:32.987Z,2.67
2023-03-06T01:23:59.355Z,2.69
2023-03-06T01:26:25.789Z,2.79
2023-03-06T01:28:52.191Z,2.93
2023-03-06T01:31:18.662Z,2.91
2023-03-06T01:33:45.177Z,2.88
2023-03-06T01:36:12.954Z,2.85
2023-03-06T01:38:39.434Z,2.85
2023-03-06T01:41:06.350Z,2.78
2023-03-06T01:43:38.282Z,2.63
2023-03-06T01:46:28.874Z,2.52
2023-03-06T01:49:11.948Z,2.71
2023-03-06T01:51:48.935Z,2.54
2023-03-06T01:54:24.116Z,2.68
2023-03-06T01:56:56.054Z,2.69
2023-03-06T01:59:24.849Z,2.82
2023-03-06T02:01:51.376Z,2.89
2023-03-06T02:04:19.430Z,2.95
2023-03-06T02:06:47.381Z,2.86
2023-03-06T02:09:14.322Z,2.72
2023-03-06T02:11:44.048Z,2.31
2023-03-06T02:14:13.549Z,2.43
2023-03-06T02:16:41.543Z,2.24
2023-03-06T02:19:21.186Z,2.33
2023-03-06T02:21:47.712Z,2.41
2023-03-06T02:24:51.301Z,2.40
2023-03-06T02:27:19.436Z,2.27
2023-03-06T02:29:46.125Z,2.36
2023-03-06T02:32:12.608Z,2.46
2023-03-06T02:34:38.994Z,2.41
2023-03-06T02:37:08.923Z,2.41
2023-03-06T02:39:41.591Z,2.49
2023-03-06T02:42:08.200Z,2.51
2023-03-06T02:44:35.840Z,2.42
2023-03-06T02:47:02.256Z,2.50
2023-03-06T02:49:28.670Z,2.53
2023-03-06T02:51:55.082Z,2.55
2023-03-06T02:54:21.452Z,2.37
2023-03-06T02:56:47.951Z,2.46
2023-03-06T02:59:14.366Z,2.44
2023-03-06T03:01:40.844Z,2.32
2023-03-06T03:04:08.080Z,2.39
2023-03-06T03:06:34.561Z,2.27
2023-03-06T03:09:01.070Z,2.33
2023-03-06T03:11:27.502Z,2.47
2023-03-06T03:13:53.943Z,2.48
2023-03-06T03:16:20.422Z,2.45
2023-03-06T03:18:51.040Z,2.42
2023-03-06T03:21:18.148Z,2.43
2023-03-06T03:23:44.679Z,2.32
2023-03-06T03:26:15.522Z,2.40
2023-03-06T03:28:42.277Z,2.42
2023-03-06T03:31:10.274Z,2.42
2023-03-06T03:33:36.944Z,2.26
2023-03-06T03:36:05.776Z,2.28
2023-03-06T03:38:32.982Z,2.34
2023-03-06T03:41:01.477Z,2.20
2023-03-06T03:43:28.099Z,2.23
2023-03-06T03:45:54.632Z,2.30
2023-03-06T03:48:21.308Z,2.28
2023-03-06T03:50:47.837Z,2.15
2023-03-06T03:53:14.288Z,2.14
2023-03-06T03:55:40.652Z,2.11
2023-03-06T03:58:07.069Z,1.97
2023-03-06T04:00:33.551Z,2.07
2023-03-06T04:03:00.019Z,2.12
2023-03-06T04:05:26.390Z,2.13
2023-03-06T04:07:52.842Z,2.15
2023-03-06T04:10:19.341Z,2.08
2023-03-06T04:12:45.762Z,2.10
2023-03-06T04:15:12.315Z,2.05
2023-03-06T04:17:38.747Z,2.03
2023-03-06T04:20:05.597Z,2.13
2023-03-06T04:22:32.061Z,2.11
2023-03-06T04:24:58.526Z,2.15
2023-03-06T04:27:25.036Z,2.05
2023-03-06T04:29:51.517Z,1.99
2023-03-06T04:32:19.724Z,1.82
2023-03-06T04:34:47.704Z,1.79
2023-03-06T04:37:24.098Z,1.62
2023-03-06T04:39:50.942Z,1.67
2023-03-06T04:42:17.828Z,1.82
2023-03-06T04:44:45.072Z,1.76
2023-03-06T04:47:12.158Z,1.61
2023-03-06T04:49:38.660Z,1.61
2023-03-06T04:52:05.460Z,1.55
2023-03-06T04:54:31.877Z,1.56
2023-03-06T04:56:58.308Z,1.64
2023-03-06T04:59:24.915Z,1.80
2023-03-06T05:01:51.387Z,1.71
2023-03-06T05:04:17.848Z,1.63
2023-03-06T05:06:44.268Z,1.57
2023-03-06T05:09:10.634Z,1.62
2023-03-06T05:11:37.049Z,1.47
2023-03-06T05:14:03.505Z,1.44
2023-03-06T05:16:30.078Z,1.52
2023-03-06T05:18:56.650Z,1.52
2023-03-06T05:21:23.113Z,1.44
2023-03-06T05:23:49.571Z,1.51
2023-03-06T05:26:16.250Z,1.37
2023-03-06T05:28:42.827Z,1.43
2023-03-06T05:31:09.510Z,1.34
2023-03-06T05:33:37.008Z,1.40
2023-03-06T05:36:03.711Z,1.51
2023-03-06T05:38:30.152Z,1.41
2023-03-06T05:40:56.621Z,1.37
2023-03-06T05:43:23.274Z,1.40
2023-03-06T05:45:50.569Z,1.51
2023-03-06T05:48:17.123Z,1.59
2023-03-06T05:50:43.613Z,1.32
2023-03-06T05:53:10.247Z,1.34
2023-03-06T05:55:36.726Z,1.40
2023-03-06T05:58:03.384Z,1.34
2023-03-06T06:00:30.026Z,1.41
2023-03-06T06:02:56.434Z,1.27
2023-03-06T06:05:23.110Z,1.15
2023-03-06T06:07:49.552Z,1.23
2023-03-06T06:10:16.114Z,1.35
2023-03-06T06:12:42.538Z,1.43
2023-03-06T06:15:09.439Z,1.44
2023-03-06T06:17:35.879Z,1.52
2023-03-06T06:20:02.364Z,1.56
2023-03-06T06:22:28.939Z,1.58
2023-03-06T06:24:55.423Z,1.60
2023-03-06T06:27:21.825Z,1.74
2023-03-06T06:29:51.684Z,1.75
2023-03-06T06:32:18.190Z,1.85
2023-03-06T06:34:44.640Z,1.80
2023-03-06T06:37:11.085Z,1.85
2023-03-06T06:39:37.484Z,1.93
2023-03-06T06:42:26.562Z,1.99
2023-03-06T06:44:51.434Z,2.10
2023-03-06T06:47:23.063Z,2.09
2023-03-06T06:49:55.417Z,1.82
2023-03-06T06:52:23.136Z,1.86
2023-03-06T06:54:49.600Z,1.94
2023-03-06T06:57:16.466Z,2.18
2023-03-06T06:59:42.959Z,2.14
2023-03-06T07:02:14.325Z,2.04
2023-03-06T07:04:52.225Z,2.10
2023-03-06T07:07:27.313Z,2.08
2023-03-06T07:09:54.726Z,2.24
2023-03-06T07:12:21.149Z,2.31
2023-03-06T07:14:48.373Z,2.48
2023-03-06T07:17:14.816Z,2.51
2023-03-06T07:19:41.355Z,2.54
2023-03-06T07:22:07.784Z,2.50
2023-03-06T07:24:34.529Z,2.50
2023-03-06T07:27:00.930Z,2.49
2023-03-06T07:29:27.466Z,2.58
2023-03-06T07:31:54.022Z,2.46
2023-03-06T07:34:20.442Z,2.55
2023-03-06T07:36:47.042Z,2.63
2023-03-06T07:39:13.488Z,2.76
2023-03-06T07:41:39.910Z,2.86
2023-03-06T07:44:06.450Z,2.85
2023-03-06T07:46:32.975Z,2.85
2023-03-06T07:48:59.511Z,2.83
2023-03-06T07:51:26.090Z,2.79
2023-03-06T07:53:52.504Z,2.76
2023-03-06T07:56:19.054Z,2.75
2023-03-06T07:58:46.781Z,2.75
2023-03-06T08:01:16.592Z,2.88
2023-03-06T08:03:43.312Z,2.87
2023-03-06T08:06:12.565Z,2.86
2023-03-06T08:08:40.626Z,2.84
2023-03-06T08:11:08.982Z,2.92
2023-03-06T08:13:35.904Z,2.85
2023-03-06T08:16:03.656Z,2.81
2023-03-06T08:18:30.226Z,2.81
2023-03-06T08:21:09.829Z,2.78
2023-03-06T08:23:36.951Z,2.40
2023-03-06T08:26:10.429Z,2.60
2023-03-06T08:28:37.033Z,2.23
2023-03-06T08:31:11.307Z,2.39
2023-03-06T08:33:38.615Z,2.67
2023-03-06T08:36:05.609Z,2.87
2023-03-06T08:38:32.111Z,3.02
2023-03-06T08:40:58.558Z,2.68
2023-03-06T08:43:25.247Z,2.59
2023-03-06T08:45:53.361Z,3.10
2023-03-06T08:48:19.872Z,3.15
2023-03-06T08:50:46.475Z,3.43
2023-03-06T08:53:12.912Z,3.22
2023-03-06T08:55:39.470Z,3.70
2023-03-06T08:58:06.012Z,3.20
2023-03-06T09:00:33.512Z,3.43
2023-03-06T09:03:00.572Z,3.14
2023-03-06T09:05:27.346Z,3.64
2023-03-06T09:07:53.934Z,3.81
2023-03-06T09:10:22.916Z,4.02
2023-03-06T09:12:52.462Z,4.21
2023-03-06T09:15:21.571Z,4.39
2023-03-06T09:17:48.263Z,4.60
2023-03-06T09:20:15.341Z,4.80
2023-03-06T09:22:45.760Z,4.93
2023-03-06T09:25:13.748Z,4.95
2023-03-06T09:27:40.962Z,4.65
2023-03-06T09:30:08.258Z,4.52
2023-03-06T09:32:34.682Z,5.05
2023-03-06T09:35:01.351Z,5.01
2023-03-06T09:37:27.811Z,4.98
2023-03-06T09:39:54.324Z,4.97
2023-03-06T09:42:23.450Z,5.35
2023-03-06T09:44:59.976Z,5.05
2023-03-06T09:47:29.497Z,4.86
2023-03-06T09:50:44.505Z,4.49
2023-03-06T09:53:32.387Z,4.95
2023-03-06T09:56:20.458Z,4.14
2023-03-06T09:58:55.982Z,4.65
2023-03-06T10:01:34.875Z,5.11
2023-03-06T10:04:19.271Z,4.90
2023-03-06T10:06:49.091Z,5.01
2023-03-06T10:09:24.376Z,4.63
2023-03-06T10:12:15.824Z,5.12
2023-03-06T10:14:48.404Z,4.95
2023-03-06T10:17:22.137Z,5.28
2023-03-06T10:19:49.291Z,6.68
2023-03-06T10:22:38.690Z,7.17
2023-03-06T10:25:27.989Z,8.23
2023-03-06T10:28:18.626Z,7.76
2023-03-06T10:30:56.949Z,6.73
2023-03-06T10:33:44.396Z,6.66
2023-03-06T10:36:16.217Z,6.26
2023-03-06T10:38:44.435Z,6.35
2023-03-06T10:41:10.809Z,5.55
2023-03-06T10:43:43.373Z,4.79
2023-03-06T10:46:12.424Z,5.15
2023-03-06T10:48:42.006Z,5.50
2023-03-06T10:51:21.627Z,5.20
2023-03-06T10:53:56.052Z,5.93
2023-03-06T10:56:30.294Z,6.34
2023-03-06T10:59:25.380Z,6.03
2023-03-06T11:01:58.029Z,6.08
2023-03-06T11:04:33.737Z,5.99
2023-03-06T11:07:28.408Z,6.39
2023-03-06T11:09:57.885Z,6.05
2023-03-06T11:12:35.052Z,6.09
2023-03-06T11:15:17.677Z,6.41
2023-03-06T11:17:51.760Z,6.19
2023-03-06T11:20:44.684Z,6.11
2023-03-06T11:23:38.287Z,5.80
2023-03-06T11:26:04.829Z,6.38
2023-03-06T11:28:37.062Z,6.87
2023-03-06T11:31:13.702Z,7.20
2023-03-06T11:33:49.744Z,7.72
2023-03-06T11:36:25.217Z,8.81
2023-03-06T11:38:53.634Z,9.63
2023-03-06T11:41:31.141Z,9.89
2023-03-06T11:44:15.736Z,10.06
2023-03-06T19:57:34.291Z,1.94
2023-03-06T20:00:01.787Z,1.97
2023-03-06T20:02:28.373Z,1.96
2023-03-06T20:04:55.171Z,1.94
2023-03-06T20:07:22.204Z,1.93
2023-03-06T20:09:48.625Z,1.87
2023-03-06T20:12:15.989Z,1.88
2023-03-06T20:14:43.077Z,1.86
2023-03-06T20:17:09.604Z,1.75
2023-03-06T20:19:36.505Z,1.96
2023-03-06T20:22:03.341Z,1.96
2023-03-06T20:24:29.788Z,1.76
2023-03-06T20:26:57.610Z,1.61
2023-03-06T20:29:26.646Z,1.71
2023-03-06T20:31:56.106Z,1.77
2023-03-06T20:34:26.387Z,1.67
2023-03-06T20:36:53.224Z,1.63
2023-03-06T20:39:25.769Z,1.56
2023-03-06T20:41:52.322Z,1.57
2023-03-06T20:44:23.198Z,1.48
2023-03-06T20:46:52.042Z,1.51
2023-03-06T20:49:19.211Z,1.55
2023-03-06T20:51:49.972Z,1.52
2023-03-06T20:54:20.056Z,1.56
2023-03-06T20:56:48.975Z,1.56
2023-03-06T20:59:15.988Z,1.37
2023-03-06T21:01:44.861Z,1.39
2023-03-06T21:04:13.919Z,1.41
2023-03-06T21:06:42.489Z,1.32
2023-03-06T21:09:08.943Z,1.29
2023-03-06T21:11:35.574Z,1.22
2023-03-06T21:14:02.220Z,1.14
2023-03-06T21:16:30.438Z,1.10
2023-03-06T21:18:59.452Z,1.04
2023-03-06T21:21:32.030Z,1.07
2023-03-06T21:23:59.478Z,1.11
2023-03-06T21:26:28.872Z,1.08
2023-03-06T21:28:58.885Z,1.13
2023-03-06T21:31:29.521Z,1.13
2023-03-06T21:33:58.131Z,1.08
2023-03-06T21:36:25.164Z,1.15
2023-03-06T21:38:52.612Z,1.20
2023-03-06T21:41:24.787Z,1.03
2023-03-06T21:43:59.258Z,1.02
2023-03-06T21:46:29.944Z,1.01
2023-03-06T21:48:59.795Z,0.95
2023-03-06T21:51:26.919Z,1.03
2023-03-06T21:53:54.411Z,0.93
2023-03-06T21:56:28.307Z,0.82
2023-03-06T21:58:57.953Z,0.73
2023-03-06T22:01:27.482Z,0.69
2023-03-06T22:03:54.263Z,0.89
2023-03-06T22:06:24.204Z,0.84
2023-03-06T22:08:52.502Z,0.78
2023-03-06T22:11:20.840Z,0.82
2023-03-06T22:13:49.259Z,0.88
2023-03-06T22:16:16.838Z,0.97
2023-03-06T22:18:51.269Z,1.01
2023-03-06T22:21:20.326Z,1.00
2023-03-06T22:23:55.107Z,0.92
2023-03-06T22:26:21.660Z,0.89
2023-03-06T22:28:48.276Z,0.92
2023-03-06T22:31:29.008Z,0.93
2023-03-06T22:33:57.663Z,0.93
2023-03-06T22:36:25.228Z,0.95
2023-03-06T22:38:57.720Z,0.89
2023-03-06T22:41:28.740Z,0.96
2023-03-06T22:43:59.218Z,0.93
2023-03-06T22:46:26.522Z,1.02
2023-03-06T22:48:54.239Z,1.02
2023-03-06T22:51:21.145Z,1.10
2023-03-06T22:53:48.407Z,1.12
2023-03-06T22:56:20.280Z,1.13
2023-03-06T22:58:47.584Z,1.10
2023-03-06T23:01:23.190Z,1.12
2023-03-06T23:03:51.548Z,1.19
2023-03-06T23:06:24.012Z,1.15
2023-03-06T23:09:20.501Z,1.29
2023-03-06T23:11:49.352Z,1.40
2023-03-06T23:14:17.387Z,1.69
2023-03-06T23:16:44.440Z,1.72
2023-03-06T23:19:11.321Z,1.54
2023-03-06T23:21:37.856Z,1.36
2023-03-06T23:24:05.425Z,1.58
2023-03-06T23:26:34.246Z,1.46
2023-03-06T23:29:04.345Z,1.37
2023-03-06T23:31:31.563Z,1.39
2023-03-06T23:33:59.914Z,1.69
2023-03-06T23:36:27.128Z,1.74
2023-03-06T23:38:53.611Z,1.53
2023-03-06T23:41:21.688Z,1.73
2023-03-06T23:43:48.736Z,1.56
2023-03-06T23:46:15.623Z,1.48
2023-03-06T23:48:43.387Z,1.41
2023-03-06T23:51:15.537Z,1.32
2023-03-06T23:53:43.407Z,1.42
2023-03-06T23:56:09.917Z,1.55
2023-03-06T23:58:36.965Z,1.47
